Time;durP1;ratioP1;P1;durP2;ratioP2;P2;SDS_P1;SDS_P2;PMS_P1;PMS_P2;Temp;Humidity;BMP_temperature;BMP_pressure;BME280_temperature;BME280_humidity;BME280_pressure;Samples;Min_cycle;Max_cycle;Signal;HPM_P1;HPM_P2
2021/12/16 00:03:25;;;;;;;31.95;15.00;;;;;;;0.78;100.00;95622.44;4903750;29;20390;-84
2021/12/16 00:08:25;;;;;;;30.05;15.15;;;;;;;0.88;100.00;95624.78;4919408;29;20058;-85
2021/12/16 00:30:04;;;;;;;29.30;13.90;;;;;;;1.12;100.00;95618.59;4919327;29;20183;-84
2021/12/16 00:32:48;;;;;;;44.97;21.17;;;;;;;1.01;100.00;95607.91;4905273;29;20419;-85
2021/12/16 00:35:15;;;;;;;36.58;18.02;;;;;;;1.04;100.00;95607.56;4890397;29;20430;-84
2021/12/16 00:37:41;;;;;;;33.47;15.60;;;;;;;1.10;100.00;95617.97;4919180;29;20067;-85
2021/12/16 00:40:08;;;;;;;27.10;12.68;;;;;;;1.08;100.00;95603.63;4887946;29;20119;-84
2021/12/16 00:42:50;;;;;;;22.00;11.55;;;;;;;1.15;100.00;95612.28;4920933;29;20437;-85
2021/12/16 00:48:09;;;;;;;24.15;12.75;;;;;;;1.02;100.00;95606.94;4922914;29;20091;-85
2021/12/16 00:55:51;;;;;;;21.77;9.75;;;;;;;0.78;100.00;95619.84;4909414;29;20095;-84
2021/12/16 00:58:21;;;;;;;33.22;15.38;;;;;;;0.75;100.00;95625.38;4907258;29;20357;-84
2021/12/16 01:01:09;;;;;;;40.70;19.00;;;;;;;0.63;100.00;95619.00;4891669;29;20055;-84
2021/12/16 01:03:51;;;;;;;52.33;23.48;;;;;;;0.61;100.00;95626.13;4906901;29;20073;-84
2021/12/16 01:36:43;;;;;;;59.80;25.25;;;;;;;0.41;100.00;95668.66;4907229;29;20040;-84
2021/12/16 01:55:17;;;;;;;32.45;14.98;;;;;;;0.49;100.00;95652.31;4861119;29;20041;-85
2021/12/16 01:57:48;;;;;;;44.25;20.08;;;;;;;0.41;100.00;95648.03;4888112;29;20032;-85
2021/12/16 02:00:24;;;;;;;44.80;19.98;;;;;;;0.26;100.00;95647.97;4887673;29;20032;-85
2021/12/16 02:02:51;;;;;;;41.38;17.67;;;;;;;0.45;100.00;95645.91;4872205;29;20038;-85
2021/12/16 02:05:34;;;;;;;37.10;16.77;;;;;;;0.30;100.00;95648.44;4873258;29;20029;-85
2021/12/16 02:10:39;;;;;;;21.70;9.25;;;;;;;0.17;100.00;95648.97;4906550;29;20032;-85
2021/12/16 02:30:23;;;;;;;36.42;17.65;;;;;;;0.54;100.00;95637.16;4922232;29;20410;-84
2021/12/16 02:32:26;;;;;;;38.30;18.75;;;;;;;0.60;100.00;95633.09;4907985;29;20099;-85
2021/12/16 02:37:36;;;;;;;38.40;19.15;;;;;;;0.72;100.00;95627.50;4907272;29;20043;-84
2021/12/16 02:40:05;;;;;;;43.42;19.95;;;;;;;0.78;100.00;95627.59;4889948;29;20032;-85
2021/12/16 02:42:40;;;;;;;38.97;19.75;;;;;;;0.88;100.00;95627.38;4904821;29;20032;-85
2021/12/16 02:50:23;;;;;;;38.78;18.17;;;;;;;0.70;100.00;95622.53;4907438;29;20051;-85
2021/12/16 02:52:48;;;;;;;40.72;18.55;;;;;;;0.69;100.00;95615.75;4904615;29;20032;-84
2021/12/16 02:55:16;;;;;;;39.90;19.10;;;;;;;0.82;100.00;95612.56;4904695;29;20442;-84
2021/12/16 02:57:51;;;;;;;40.60;18.02;;;;;;;0.79;100.00;95607.78;4904524;29;20035;-85
2021/12/16 03:00:18;;;;;;;36.13;17.25;;;;;;;0.92;100.00;95604.59;4905994;29;20036;-85
2021/12/16 03:02:47;;;;;;;34.72;18.20;;;;;;;0.88;100.00;95611.06;4920061;29;20035;-84
2021/12/16 03:05:13;;;;;;;35.53;17.42;;;;;;;0.84;100.00;95605.47;4903754;29;20036;-85
2021/12/16 03:07:39;;;;;;;31.85;16.15;;;;;;;0.67;100.00;95610.75;4904857;29;20028;-85
2021/12/16 03:15:34;;;;;;;36.90;16.42;;;;;;;0.60;100.00;95627.09;4904298;29;20075;-84
2021/12/16 03:20:42;;;;;;;35.42;16.55;;;;;;;0.31;100.00;95624.25;4904486;29;20078;-85
2021/12/16 03:31:44;;;;;;;33.25;15.32;;;;;;;0.50;100.00;95612.69;4906642;29;20039;-85
2021/12/16 03:39:45;;;;;;;24.35;12.30;;;;;;;0.75;100.00;95607.31;4906231;29;20323;-84
2021/12/16 03:42:12;;;;;;;38.22;16.90;;;;;;;0.74;100.00;95602.34;4903822;29;20059;-85
2021/12/16 03:45:05;;;;;;;38.15;16.92;;;;;;;0.77;100.00;95596.81;4920755;29;20034;-85
2021/12/16 03:47:41;;;;;;;36.13;17.10;;;;;;;0.68;100.00;95601.25;4906200;29;20111;-84
2021/12/16 03:50:11;;;;;;;29.88;15.48;;;;;;;0.59;100.00;95594.56;4888134;29;20050;-84
2021/12/16 03:52:37;;;;;;;32.28;14.77;;;;;;;0.56;100.00;95588.78;4903606;29;20030;-84
2021/12/16 03:55:03;;;;;;;37.30;15.88;;;;;;;0.58;100.00;95591.19;4903755;29;20024;-84
2021/12/16 03:57:31;;;;;;;31.95;14.13;;;;;;;0.54;100.00;95592.50;4903638;29;20111;-84
2021/12/16 03:59:56;;;;;;;29.48;13.82;;;;;;;0.69;100.00;95595.13;4904026;29;20055;-85
2021/12/16 04:02:29;;;;;;;24.73;11.77;;;;;;;0.53;100.00;95590.88;4902287;29;20053;-85
2021/12/16 04:04:55;;;;;;;26.52;12.63;;;;;;;0.62;100.00;95591.63;4900716;29;20028;-85
2021/12/16 04:07:23;;;;;;;22.10;11.15;;;;;;;0.56;100.00;95603.44;4890378;29;20019;-85
2021/12/16 04:09:51;;;;;;;24.55;10.60;;;;;;;0.41;100.00;95598.25;4903620;29;20024;-85
2021/12/16 04:12:20;;;;;;;33.63;15.75;;;;;;;0.28;100.00;95596.22;4887865;29;20126;-85
2021/12/16 04:14:50;;;;;;;30.23;15.02;;;;;;;0.17;100.00;95591.47;4885565;29;20391;-85
2021/12/16 04:17:18;;;;;;;35.17;16.83;;;;;;;0.42;100.00;95586.94;4875784;29;20342;-85
2021/12/16 04:19:44;;;;;;;27.00;13.27;;;;;;;0.47;100.00;95579.47;4900242;29;20028;-85
2021/12/16 04:22:17;;;;;;;37.05;13.57;;;;;;;0.39;100.00;95580.34;4897129;29;20310;-85
2021/12/16 04:24:46;;;;;;;35.33;15.55;;;;;;;0.16;100.00;95584.72;4903531;29;20366;-84
2021/12/16 04:27:13;;;;;;;23.08;10.30;;;;;;;0.12;100.00;95577.31;4903385;29;20022;-85
2021/12/16 04:29:40;;;;;;;33.78;16.42;;;;;;;0.17;100.00;95573.44;4920144;29;20032;-85
2021/12/16 04:32:08;;;;;;;33.03;15.15;;;;;;;0.25;100.00;95578.53;4903410;29;20465;-85
2021/12/16 04:34:34;;;;;;;32.53;15.82;;;;;;;0.15;100.00;95567.66;4903376;29;20480;-85
2021/12/16 04:37:00;;;;;;;33.65;15.93;;;;;;;-0.01;100.00;95561.63;4887912;29;20059;-85
2021/12/16 04:39:32;;;;;;;34.10;16.48;;;;;;;-0.03;100.00;95561.81;4903349;29;20032;-85
2021/12/16 04:41:58;;;;;;;31.20;12.75;;;;;;;-0.08;100.00;95564.06;4903229;29;20024;-85
2021/12/16 04:44:25;;;;;;;28.05;14.05;;;;;;;0.01;100.00;95567.44;4903175;29;20047;-84
2021/12/16 04:46:51;;;;;;;33.75;15.95;;;;;;;0.02;100.00;95566.44;4887804;29;20024;-85
2021/12/16 04:49:18;;;;;;;37.55;17.42;;;;;;;0.20;100.00;95573.09;4903257;29;20024;-85
2021/12/16 04:51:48;;;;;;;24.48;11.75;;;;;;;0.26;100.00;95574.97;4902339;29;20028;-85
2021/12/16 04:54:17;;;;;;;25.42;11.32;;;;;;;0.14;100.00;95579.72;4919009;29;20028;-84
2021/12/16 04:56:43;;;;;;;34.90;15.00;;;;;;;0.16;100.00;95580.34;4895629;29;20032;-85
2021/12/16 04:59:12;;;;;;;30.17;14.10;;;;;;;0.10;100.00;95578.47;4887765;29;20039;-85
2021/12/16 05:01:40;;;;;;;29.90;13.73;;;;;;;0.08;100.00;95578.63;4918540;29;20078;-85
2021/12/16 05:04:06;;;;;;;28.67;12.45;;;;;;;0.15;100.00;95575.41;4903082;29;20028;-84
2021/12/16 05:06:31;;;;;;;27.40;12.57;;;;;;;0.17;100.00;95579.38;4903102;29;20064;-84
2021/12/16 05:08:58;;;;;;;23.02;9.88;;;;;;;0.16;100.00;95579.56;4903063;29;20032;-84
2021/12/16 05:11:24;;;;;;;23.33;10.07;;;;;;;0.38;100.00;95581.31;4903111;29;20111;-85
2021/12/16 05:13:49;;;;;;;24.55;10.13;;;;;;;0.30;100.00;95578.81;4887662;29;20123;-85
2021/12/16 05:16:15;;;;;;;16.00;7.68;;;;;;;0.27;100.00;95584.31;4902578;29;20040;-85
2021/12/16 05:18:41;;;;;;;15.60;7.80;;;;;;;0.23;100.00;95589.03;4887579;29;20052;-84
2021/12/16 05:21:38;;;;;;;17.73;8.50;;;;;;;0.29;100.00;95584.97;4887537;29;20075;-83
2021/12/16 05:26:44;;;;;;;26.67;12.10;;;;;;;0.41;100.00;95582.78;4905332;29;20032;-84
2021/12/16 05:29:10;;;;;;;34.72;13.20;;;;;;;0.51;100.00;95593.66;4890371;29;20051;-84
2021/12/16 05:31:37;;;;;;;30.92;13.82;;;;;;;0.41;100.00;95586.13;4906175;29;20028;-84
2021/12/16 05:34:04;;;;;;;22.52;11.43;;;;;;;0.31;100.00;95585.59;4906194;29;20061;-84
2021/12/16 05:36:29;;;;;;;29.30;12.05;;;;;;;0.62;100.00;95591.63;4923014;29;20028;-84
2021/12/16 05:38:56;;;;;;;22.60;11.27;;;;;;;0.54;100.00;95587.34;4906103;29;20445;-84
2021/12/16 05:41:23;;;;;;;23.70;10.73;;;;;;;0.54;100.00;95587.34;4921713;29;20318;-84
2021/12/16 05:43:49;;;;;;;17.55;8.43;;;;;;;0.56;100.00;95582.78;4906072;29;20505;-84
2021/12/16 05:46:17;;;;;;;18.52;8.48;;;;;;;0.86;100.00;95576.91;4906019;29;20315;-84
2021/12/16 05:48:44;;;;;;;24.10;9.15;;;;;;;1.17;100.00;95570.78;4905904;29;20059;-84
2021/12/16 05:51:16;;;;;;;12.20;6.28;;;;;;;0.97;100.00;95573.91;4905869;29;20024;-85
2021/12/16 05:53:42;;;;;;;13.35;6.88;;;;;;;0.80;100.00;95571.50;4905581;29;20043;-85
2021/12/16 05:56:08;;;;;;;17.55;8.68;;;;;;;0.69;100.00;95574.47;4898515;29;20067;-84
2021/12/16 05:58:34;;;;;;;14.32;7.07;;;;;;;0.54;100.00;95588.16;4886860;29;20462;-85
2021/12/16 06:01:04;;;;;;;10.95;5.68;;;;;;;0.51;100.00;95582.53;4887018;29;20033;-85
2021/12/16 06:03:30;;;;;;;11.40;5.50;;;;;;;0.48;100.00;95581.09;4903565;29;20028;-85
2021/12/16 06:05:56;;;;;;;11.38;5.55;;;;;;;0.35;100.00;95578.28;4886891;29;20323;-85
2021/12/16 06:08:22;;;;;;;12.27;5.65;;;;;;;0.13;100.00;95596.97;4886877;29;20039;-84
2021/12/16 06:13:16;;;;;;;22.60;8.88;;;;;;;0.01;100.00;95610.41;4906132;29;20039;-85
2021/12/16 06:29:13;;;;;;;18.55;8.27;;;;;;;-0.05;100.00;95620.44;4921399;29;20036;-85
2021/12/16 06:31:39;;;;;;;15.75;7.75;;;;;;;-0.02;100.00;95620.09;4905018;29;20099;-84
2021/12/16 06:34:04;;;;;;;19.23;8.45;;;;;;;0.41;100.00;95618.88;4905079;29;20387;-85
2021/12/16 06:36:30;;;;;;;16.17;7.43;;;;;;;0.30;100.00;95621.84;4904937;29;20529;-85
2021/12/16 06:38:55;;;;;;;19.90;7.85;;;;;;;0.33;100.00;95627.47;4905020;29;20035;-85
2021/12/16 06:41:21;;;;;;;22.75;8.65;;;;;;;0.28;100.00;95640.03;4889629;29;20063;-85
2021/12/16 06:43:48;;;;;;;17.05;7.93;;;;;;;0.40;100.00;95632.72;4889573;29;20028;-85
2021/12/16 06:46:18;;;;;;;14.35;7.15;;;;;;;0.27;100.00;95626.38;4921823;29;20028;-85
2021/12/16 06:48:47;;;;;;;13.60;5.97;;;;;;;0.35;100.00;95633.25;4905359;29;20445;-85
2021/12/16 06:51:20;;;;;;;16.80;7.55;;;;;;;0.23;100.00;95632.84;4905264;29;20023;-85
2021/12/16 06:54:03;;;;;;;17.20;7.25;;;;;;;0.23;100.00;95635.44;4890375;29;20035;-85
2021/12/16 06:56:36;;;;;;;11.85;5.90;;;;;;;0.35;100.00;95635.00;4906783;29;20063;-85
2021/12/16 06:59:09;;;;;;;;;;;;;;;0.47;100.00;95632.84;4920991;29;20031;-85
2021/12/16 07:04:04;;;;;;;19.25;7.13;;;;;;;0.39;100.00;95644.03;4920297;29;20028;-84
2021/12/16 07:06:31;;;;;;;11.73;5.97;;;;;;;0.57;100.00;95646.28;4920282;29;20028;-85
2021/12/16 07:09:02;;;;;;;12.68;6.10;;;;;;;0.63;100.00;95642.22;4889120;29;20071;-85
2021/12/16 07:11:28;;;;;;;12.48;6.25;;;;;;;0.55;100.00;95643.09;4904774;29;20028;-84
2021/12/16 07:14:02;;;;;;;11.27;6.00;;;;;;;0.60;100.00;95640.81;4904424;29;20123;-85
2021/12/16 07:16:28;;;;;;;12.32;5.63;;;;;;;0.61;100.00;95642.41;4905260;29;20043;-85
2021/12/16 07:18:55;;;;;;;11.68;5.72;;;;;;;0.78;100.00;95637.91;4904523;29;20175;-84
2021/12/16 07:21:21;;;;;;;12.30;6.43;;;;;;;0.83;100.00;95630.47;4921088;29;20365;-84
2021/12/16 07:23:46;;;;;;;18.20;8.25;;;;;;;0.97;100.00;95630.69;4889067;29;20028;-85
2021/12/16 07:26:12;;;;;;;25.60;10.55;;;;;;;1.06;100.00;95623.66;4920103;29;20102;-85
2021/12/16 07:28:38;;;;;;;15.05;7.78;;;;;;;1.25;100.00;95632.69;4904195;29;20032;-85
2021/12/16 07:31:03;;;;;;;17.85;8.10;;;;;;;1.31;100.00;95626.00;4904090;29;20043;-85
2021/12/16 07:33:29;;;;;;;18.75;7.97;;;;;;;1.45;100.00;95616.66;4920882;29;20032;-85
2021/12/16 07:35:55;;;;;;;16.83;7.72;;;;;;;1.53;100.00;95625.09;4920828;29;20035;-85
2021/12/16 07:38:21;;;;;;;15.45;7.53;;;;;;;1.64;100.00;95625.63;4904050;29;20042;-85
2021/12/16 07:40:49;;;;;;;14.93;6.90;;;;;;;1.64;100.00;95618.66;4904005;29;20434;-85
2021/12/16 07:45:51;;;;;;;14.23;6.03;;;;;;;1.64;100.00;95623.06;4920037;29;20028;-84
2021/12/16 07:48:17;;;;;;;13.52;6.05;;;;;;;1.72;100.00;95627.31;4919629;29;20055;-85
2021/12/16 07:50:45;;;;;;;14.32;5.97;;;;;;;1.71;100.00;95630.88;4895696;29;20344;-85
2021/12/16 07:53:11;;;;;;;12.50;6.80;;;;;;;1.65;100.00;95619.50;4888256;29;20354;-85
2021/12/16 07:55:36;;;;;;;15.05;8.07;;;;;;;1.69;100.00;95612.97;4903900;29;20024;-85
2021/12/16 07:58:03;;;;;;;18.08;8.88;;;;;;;1.68;100.00;95609.59;4903823;29;20063;-85
2021/12/16 08:00:33;;;;;;;15.80;8.32;;;;;;;1.76;100.00;95619.03;4920590;29;20338;-85
2021/12/16 08:03:00;;;;;;;18.17;8.23;;;;;;;1.88;100.00;95626.34;4888368;29;20027;-85
2021/12/16 08:05:26;;;;;;;20.52;8.52;;;;;;;1.83;100.00;95625.06;4903670;29;20441;-85
2021/12/16 08:07:52;;;;;;;13.77;7.90;;;;;;;1.64;100.00;95628.22;4903685;29;20404;-85
2021/12/16 08:10:21;;;;;;;16.83;8.50;;;;;;;1.72;100.00;95622.94;4903582;29;20056;-85
2021/12/16 08:12:47;;;;;;;16.95;7.88;;;;;;;1.71;100.00;95620.56;4919143;29;20389;-85
2021/12/16 08:15:15;;;;;;;17.40;8.63;;;;;;;1.72;100.00;95614.41;4903611;29;20032;-85
2021/12/16 08:17:42;;;;;;;16.45;8.30;;;;;;;1.81;100.00;95621.88;4903616;29;20547;-85
2021/12/16 08:20:08;;;;;;;14.95;8.23;;;;;;;1.95;100.00;95622.84;4903603;29;20028;-85
2021/12/16 08:22:34;;;;;;;18.15;8.63;;;;;;;2.08;100.00;95624.75;4903562;29;20024;-85
2021/12/16 08:24:59;;;;;;;18.30;7.45;;;;;;;2.20;100.00;95624.28;4903486;29;20031;-85
2021/12/16 08:27:27;;;;;;;17.42;7.55;;;;;;;2.16;100.00;95620.47;4919376;29;20024;-84
2021/12/16 08:29:52;;;;;;;15.27;7.80;;;;;;;2.18;100.00;95614.13;4903424;29;20055;-85
2021/12/16 08:32:18;;;;;;;13.93;7.70;;;;;;;2.31;100.00;95615.25;4903240;29;20119;-85
2021/12/16 08:34:45;;;;;;;16.88;8.05;;;;;;;2.44;100.00;95604.22;4919309;29;20028;-85
2021/12/16 08:37:13;;;;;;;16.35;8.60;;;;;;;2.52;100.00;95601.50;4888211;29;20043;-85
2021/12/16 08:39:39;;;;;;;15.48;6.72;;;;;;;2.62;100.00;95594.25;4919056;29;20417;-85
2021/12/16 08:42:07;;;;;;;12.00;6.32;;;;;;;2.60;100.00;95600.59;4920062;29;20028;-85
2021/12/16 08:44:32;;;;;;;13.05;6.57;;;;;;;2.65;100.00;95611.97;4903048;29;20039;-85
2021/12/16 08:47:03;;;;;;;12.52;7.15;;;;;;;2.72;100.00;95621.56;4903477;29;20020;-85
2021/12/16 08:49:29;;;;;;;13.05;7.18;;;;;;;2.65;100.00;95616.34;4920108;29;20028;-85
2021/12/16 08:51:57;;;;;;;13.63;6.60;;;;;;;2.46;100.00;95621.16;4903120;29;20509;-85
2021/12/16 08:54:23;;;;;;;19.65;7.07;;;;;;;2.44;100.00;95615.38;4903364;29;20441;-85
2021/12/16 08:56:49;;;;;;;13.57;6.95;;;;;;;2.72;100.00;95629.34;4903258;29;20123;-85
2021/12/16 08:59:15;;;;;;;14.32;6.50;;;;;;;2.71;100.00;95631.13;4903465;29;20035;-85
2021/12/16 09:01:47;;;;;;;10.40;6.30;;;;;;;2.71;100.00;95630.31;4903253;29;20074;-85
2021/12/16 09:04:15;;;;;;;10.70;6.05;;;;;;;2.68;100.00;95632.31;4906058;29;20035;-85
2021/12/16 09:06:40;;;;;;;10.98;6.13;;;;;;;2.78;100.00;95628.59;4891462;29;20024;-85
2021/12/16 09:09:07;;;;;;;9.45;5.90;;;;;;;2.89;100.00;95624.69;4906692;29;20101;-85
2021/12/16 09:11:39;;;;;;;11.15;5.85;;;;;;;3.12;100.00;95624.47;4906550;29;20032;-85
2021/12/16 09:14:05;;;;;;;11.10;5.57;;;;;;;3.22;100.00;95624.13;4891864;29;20024;-85
2021/12/16 09:16:32;;;;;;;10.45;5.55;;;;;;;3.20;100.00;95621.75;4906302;29;20041;-85
2021/12/16 09:18:58;;;;;;;9.05;5.20;;;;;;;3.23;100.00;95611.00;4890837;29;20043;-85
2021/12/16 09:21:28;;;;;;;10.93;5.25;;;;;;;3.41;100.00;95607.13;4906357;29;20028;-85
2021/12/16 09:23:55;;;;;;;13.45;5.53;;;;;;;3.57;100.00;95618.97;4922107;29;20441;-85
2021/12/16 09:26:21;;;;;;;9.35;5.05;;;;;;;3.52;100.00;95611.75;4922114;29;20024;-85
2021/12/16 09:28:48;;;;;;;11.15;4.72;;;;;;;3.61;100.00;95619.41;4906348;29;20083;-85
2021/12/16 09:31:16;;;;;;;6.93;4.20;;;;;;;3.72;100.00;95613.63;4906229;29;20101;-85
2021/12/16 09:33:44;;;;;;;8.18;4.13;;;;;;;3.88;100.00;95611.75;4906704;29;20028;-85
2021/12/16 09:36:12;;;;;;;7.03;4.10;;;;;;;3.76;100.00;95612.28;4923011;29;20034;-85
2021/12/16 09:38:38;;;;;;;9.95;4.60;;;;;;;3.81;100.00;95609.91;4890716;29;20039;-85
2021/12/16 09:41:04;;;;;;;9.10;4.03;;;;;;;3.97;100.00;95613.16;4890733;29;20023;-85
2021/12/16 09:43:33;;;;;;;8.48;4.70;;;;;;;3.91;100.00;95608.75;4905814;29;20087;-85
2021/12/16 09:46:02;;;;;;;6.18;3.50;;;;;;;4.01;100.00;95608.38;4906028;29;20050;-85
2021/12/16 09:48:30;;;;;;;8.70;4.38;;;;;;;4.06;100.00;95603.41;4922894;29;20075;-85
2021/12/16 09:50:56;;;;;;;6.75;3.75;;;;;;;4.14;100.00;95602.41;4922026;29;20046;-85
2021/12/16 09:53:21;;;;;;;6.55;4.05;;;;;;;4.18;100.00;95601.06;4906154;29;20028;-85
2021/12/16 09:55:56;;;;;;;7.15;3.88;;;;;;;4.24;100.00;95595.88;4890527;29;20028;-85
2021/12/16 09:58:22;;;;;;;9.93;4.15;;;;;;;4.29;100.00;95597.09;4922744;29;20332;-85
2021/12/16 10:00:47;;;;;;;7.22;4.10;;;;;;;4.37;100.00;95594.28;4905725;29;20066;-85
2021/12/16 10:03:13;;;;;;;6.47;3.97;;;;;;;4.59;100.00;95586.34;4905706;29;20032;-85
2021/12/16 10:05:40;;;;;;;4.25;2.80;;;;;;;4.68;100.00;95590.34;4890241;29;20063;-85
2021/12/16 10:08:08;;;;;;;4.85;2.95;;;;;;;4.74;100.00;95583.56;4905777;29;20024;-85
2021/12/16 10:10:34;;;;;;;4.50;2.80;;;;;;;4.71;100.00;95576.16;4906074;29;20028;-85
2021/12/16 10:13:02;;;;;;;5.10;2.97;;;;;;;4.75;100.00;95579.97;4905522;29;20035;-85
2021/12/16 10:18:14;;;;;;;5.03;3.05;;;;;;;5.02;100.00;95579.91;4921252;29;20069;-85
2021/12/16 10:20:49;;;;;;;7.20;3.10;;;;;;;5.12;100.00;95564.72;4921267;29;20034;-85
2021/12/16 10:23:37;;;;;;;5.25;3.03;;;;;;;5.12;100.00;95558.75;4922208;29;20354;-85
2021/12/16 10:26:10;;;;;;;5.57;2.88;;;;;;;5.22;100.00;95559.91;4905760;29;20067;-85
2021/12/16 10:28:39;;;;;;;6.93;3.35;;;;;;;5.35;100.00;95560.88;4905211;29;20039;-85
2021/12/16 10:31:16;;;;;;;5.40;3.20;;;;;;;5.32;100.00;95558.72;4905310;29;20024;-85
2021/12/16 10:33:49;;;;;;;5.85;2.85;;;;;;;5.36;100.00;95558.06;4921918;29;20055;-85
2021/12/16 10:36:17;;;;;;;6.20;3.22;;;;;;;5.47;100.00;95553.25;4889720;29;20362;-85
2021/12/16 10:39:11;;;;;;;5.20;2.88;;;;;;;5.50;100.00;95551.03;4905274;29;20060;-85
2021/12/16 10:41:47;;;;;;;6.30;2.85;;;;;;;5.59;100.00;95546.41;4868705;29;20054;-85
2021/12/16 10:44:25;;;;;;;5.03;2.60;;;;;;;5.64;100.00;95546.56;4921964;29;20024;-85
2021/12/16 10:47:12;;;;;;;3.75;2.50;;;;;;;5.61;100.00;95535.81;4905187;29;20032;-85
2021/12/16 10:49:42;;;;;;;3.25;1.92;;;;;;;5.66;100.00;95538.59;4905324;29;20036;-85
2021/12/16 10:52:13;;;;;;;4.05;2.60;;;;;;;5.73;100.00;95526.34;4904955;29;20087;-85
2021/12/16 10:54:41;;;;;;;3.50;2.17;;;;;;;5.92;100.00;95535.03;4904874;29;20039;-85
2021/12/16 10:57:12;;;;;;;3.78;2.42;;;;;;;6.04;100.00;95535.22;4920460;29;20039;-85
2021/12/16 10:59:39;;;;;;;5.75;2.20;;;;;;;6.03;100.00;95535.44;4904787;29;20480;-85
2021/12/16 11:02:12;;;;;;;3.15;2.15;;;;;;;6.13;100.00;95530.56;4904609;29;20028;-85
2021/12/16 11:05:00;;;;;;;3.58;2.35;;;;;;;6.24;100.00;95529.09;4921556;29;20087;-85
2021/12/16 11:07:39;;;;;;;3.83;2.17;;;;;;;6.19;100.00;95518.53;4904607;29;20028;-85
2021/12/16 11:10:33;;;;;;;4.18;2.55;;;;;;;6.18;100.00;95511.72;4921456;29;20066;-85
2021/12/16 11:13:02;;;;;;;3.90;2.40;;;;;;;6.26;100.00;95521.09;4904389;29;20040;-85
2021/12/16 11:15:36;;;;;;;4.97;2.95;;;;;;;6.32;100.00;95523.63;4904540;29;20120;-85
2021/12/16 11:18:16;;;;;;;4.47;2.50;;;;;;;6.42;100.00;95515.34;4920087;29;20032;-85
2021/12/16 11:20:58;;;;;;;3.90;2.17;;;;;;;6.44;100.00;95515.13;4904453;29;20036;-85
2021/12/16 11:23:27;;;;;;;4.75;2.15;;;;;;;6.51;100.00;95508.84;4904256;29;20135;-85
2021/12/16 11:25:54;;;;;;;3.83;2.00;;;;;;;6.55;100.00;95509.22;4919286;29;20027;-85
2021/12/16 11:28:24;;;;;;;3.58;2.20;;;;;;;6.71;100.00;95507.09;4904060;29;20040;-85
2021/12/16 11:30:54;;;;;;;3.42;1.90;;;;;;;6.83;100.00;95515.03;4904126;29;20031;-85
2021/12/16 11:33:26;;;;;;;2.60;1.73;;;;;;;6.80;100.00;95513.63;4903838;29;20134;-85
2021/12/16 11:35:57;;;;;;;3.38;1.90;;;;;;;6.96;100.00;95514.09;4876460;29;20063;-85
2021/12/16 11:38:27;;;;;;;2.72;1.65;;;;;;;7.06;100.00;95496.16;4909338;29;20040;-85
2021/12/16 11:41:02;;;;;;;4.00;2.15;;;;;;;7.07;100.00;95498.53;4903867;29;20034;-85
2021/12/16 11:43:53;;;;;;;2.80;1.85;;;;;;;7.02;100.00;95498.38;4903956;29;20474;-85
2021/12/16 11:46:24;;;;;;;3.60;1.60;;;;;;;7.14;100.00;95498.47;4888614;29;20024;-85
2021/12/16 11:48:52;;;;;;;4.53;1.65;;;;;;;7.17;100.00;95497.25;4888538;29;20024;-85
2021/12/16 11:51:32;;;;;;;3.03;1.67;;;;;;;7.21;100.00;95490.56;4888347;29;20024;-85
2021/12/16 11:54:25;;;;;;;2.47;1.40;;;;;;;7.21;100.00;95493.97;4903844;29;20549;-85
2021/12/16 11:56:57;;;;;;;3.83;1.50;;;;;;;7.26;100.00;95487.31;4878684;29;20045;-85
2021/12/16 11:59:35;;;;;;;2.45;1.60;;;;;;;7.36;100.00;95491.00;4869474;29;20024;-85
2021/12/16 12:02:01;;;;;;;2.67;1.30;;;;;;;7.48;100.00;95488.47;4869664;29;20031;-86
2021/12/16 12:04:30;;;;;;;2.97;1.80;;;;;;;7.44;100.00;95486.50;4885206;29;20028;-85
2021/12/16 12:06:56;;;;;;;2.55;1.50;;;;;;;7.47;100.00;95486.88;4901869;29;20338;-85
2021/12/16 12:09:34;;;;;;;2.45;1.50;;;;;;;7.58;100.00;95484.53;4884857;29;20024;-85
2021/12/16 12:12:00;;;;;;;3.00;1.73;;;;;;;7.63;100.00;95482.84;4869467;29;20088;-85
2021/12/16 12:14:32;;;;;;;2.22;1.40;;;;;;;7.65;100.00;95482.63;4869633;29;20065;-85
2021/12/16 12:17:22;;;;;;;2.22;1.25;;;;;;;7.78;100.00;95486.88;4884750;29;20205;-85
2021/12/16 12:19:51;;;;;;;2.90;1.30;;;;;;;7.78;100.00;95482.47;4874568;29;20040;-85
2021/12/16 12:22:22;;;;;;;3.30;1.80;;;;;;;7.77;100.00;95483.47;4866273;29;20515;-85
2021/12/16 12:24:52;;;;;;;4.68;1.92;;;;;;;7.85;100.00;95482.38;4866369;29;20089;-85
2021/12/16 12:27:20;;;;;;;5.05;1.80;;;;;;;7.82;100.00;95488.03;4881634;29;20025;-85
2021/12/16 12:29:58;;;;;;;5.30;2.63;;;;;;;7.99;100.00;95482.19;4869308;29;20039;-85
2021/12/16 12:32:52;;;;;;;7.43;2.80;;;;;;;7.93;100.00;95489.09;4869610;29;20038;-85
2021/12/16 12:35:24;;;;;;;8.65;3.63;;;;;;;7.99;100.00;95487.41;4876499;29;20048;-85
2021/12/16 12:37:53;;;;;;;6.05;3.28;;;;;;;8.01;100.00;95485.38;4887031;29;20394;-85
2021/12/16 12:40:23;;;;;;;5.70;3.47;;;;;;;7.89;100.00;95491.34;4873148;29;20095;-85
2021/12/16 12:42:51;;;;;;;6.85;3.15;;;;;;;7.87;100.00;95485.56;4888344;29;20076;-85
2021/12/16 12:45:21;;;;;;;6.32;2.65;;;;;;;7.79;100.00;95480.63;4888323;29;20341;-85
2021/12/16 12:47:49;;;;;;;5.70;3.53;;;;;;;7.80;100.00;95476.22;4903946;29;20063;-85
2021/12/16 12:50:28;;;;;;;5.80;3.13;;;;;;;7.92;100.00;95474.47;4888541;29;20024;-85
2021/12/16 12:52:59;;;;;;;5.13;3.20;;;;;;;7.82;100.00;95479.41;4888148;29;20111;-85
2021/12/16 12:55:31;;;;;;;5.00;2.70;;;;;;;7.78;100.00;95485.06;4873132;29;20357;-85
2021/12/16 12:58:16;;;;;;;10.27;3.17;;;;;;;7.76;100.00;95487.09;4888181;29;20104;-85
2021/12/16 13:00:45;;;;;;;5.03;2.70;;;;;;;7.67;100.00;95483.22;4906847;29;20501;-85
2021/12/16 13:03:17;;;;;;;4.82;3.00;;;;;;;7.81;100.00;95486.41;4923469;29;20039;-85
2021/12/16 13:05:53;;;;;;;5.65;3.10;;;;;;;7.92;100.00;95493.50;4906973;29;20095;-85
2021/12/16 13:08:26;;;;;;;7.32;3.75;;;;;;;8.04;100.00;95487.53;4903259;29;20409;-85
2021/12/16 13:10:57;;;;;;;6.20;3.10;;;;;;;7.99;100.00;95485.56;4887902;29;20349;-85
2021/12/16 13:16:00;;;;;;;9.93;4.97;;;;;;;8.06;100.00;95475.84;4887752;29;20085;-85
2021/12/16 13:24:24;;;;;;;5.57;3.65;;;;;;;7.95;100.00;95481.84;4890225;29;20107;-86
2021/12/16 13:27:09;;;;;;;7.57;3.70;;;;;;;8.02;100.00;95477.28;4895858;29;20028;-85
2021/12/16 13:29:53;;;;;;;10.73;3.83;;;;;;;8.15;100.00;95478.13;4908226;29;20107;-85
2021/12/16 13:32:27;;;;;;;6.60;3.65;;;;;;;8.05;100.00;95471.66;4922019;29;20341;-84
2021/12/16 13:35:08;;;;;;;10.70;4.22;;;;;;;8.12;100.00;95478.59;4903893;29;20036;-85
2021/12/16 13:37:46;;;;;;;7.53;4.55;;;;;;;8.04;100.00;95482.31;4905097;29;20508;-84
2021/12/16 13:40:14;;;;;;;7.93;4.07;;;;;;;8.16;100.00;95475.31;4906297;29;20096;-84
2021/12/16 13:42:58;;;;;;;10.20;5.47;;;;;;;8.14;100.00;95481.75;4922529;29;20092;-85
2021/12/16 13:45:57;;;;;;;8.98;4.45;;;;;;;8.04;100.00;95480.50;4921938;29;20098;-84
2021/12/16 14:02:49;;;;;;;11.32;5.40;;;;;;;7.64;100.00;95494.88;4906297;29;20040;-84
2021/12/16 14:05:42;;;;;;;10.07;5.05;;;;;;;7.59;100.00;95497.34;4905621;29;20040;-84
2021/12/16 14:08:12;;;;;;;11.00;6.20;;;;;;;7.56;100.00;95489.97;4906629;29;20490;-84
2021/12/16 14:10:47;;;;;;;9.95;6.15;;;;;;;7.38;100.00;95488.19;4905635;29;20036;-84
2021/12/16 14:16:02;;;;;;;12.27;6.38;;;;;;;7.09;100.00;95490.50;4922559;29;20036;-84
2021/12/16 14:26:50;;;;;;;14.32;6.45;;;;;;;6.35;100.00;95486.78;4887440;29;20372;-84
2021/12/16 14:35:22;;;;;;;13.30;6.68;;;;;;;6.04;100.00;95488.41;4834647;29;20166;-84
2021/12/16 14:41:04;;;;;;;13.57;7.03;;;;;;;5.94;100.00;95482.81;4880066;29;20059;-84
2021/12/16 14:43:41;;;;;;;10.30;5.93;;;;;;;5.76;100.00;95484.34;4887821;29;20028;-84
2021/12/16 14:46:09;;;;;;;13.93;7.22;;;;;;;5.65;100.00;95490.19;4888242;29;20442;-84
2021/12/16 14:48:35;;;;;;;12.68;6.63;;;;;;;5.63;100.00;95494.81;4905286;29;20323;-84
2021/12/16 14:51:07;;;;;;;13.00;6.95;;;;;;;5.31;100.00;95494.75;4904777;29;20032;-84
2021/12/16 14:53:47;;;;;;;14.40;7.38;;;;;;;5.27;100.00;95491.75;4921158;29;20456;-84
2021/12/16 14:56:20;;;;;;;14.52;7.70;;;;;;;5.35;100.00;95499.31;4904166;29;20028;-83
2021/12/16 14:58:50;;;;;;;;;;;;;;;5.18;100.00;95498.97;4904967;29;20023;-83